createdAt,value
2022-08-29T00:01:41.837Z,3.43
2022-08-29T00:04:24.560Z,2.97
2022-08-29T00:07:12.737Z,3.13
2022-08-29T00:09:55.611Z,3.22
2022-08-29T00:12:43.841Z,3.33
2022-08-29T00:15:27.445Z,3.17
2022-08-29T00:18:17.882Z,2.80
2022-08-29T00:20:58.840Z,3.33
2022-08-29T00:23:46.500Z,3.08
2022-08-29T00:26:35.536Z,2.95
2022-08-29T00:29:17.436Z,3.20
2022-08-29T00:32:05.676Z,3.03
2022-08-29T00:34:46.882Z,2.83
2022-08-29T00:37:33.676Z,2.90
2022-08-29T00:40:19.990Z,3.13
2022-08-29T00:43:09.691Z,3.30
2022-08-29T00:46:19.189Z,3.13
2022-08-29T00:49:12.144Z,2.72
2022-08-29T00:51:55.551Z,3.30
2022-08-29T00:54:45.639Z,3.78
2022-08-29T00:57:28.576Z,3.00
2022-08-29T01:00:19.467Z,3.08
2022-08-29T01:03:01.865Z,3.05
2022-08-29T01:05:54.673Z,3.13
2022-08-29T01:08:36.576Z,3.08
2022-08-29T01:11:44.195Z,3.13
2022-08-29T01:14:27.407Z,3.22
2022-08-29T01:17:16.716Z,3.25
2022-08-29T01:20:14.723Z,3.63
2022-08-29T01:23:24.711Z,3.28
2022-08-29T01:26:13.628Z,3.55
2022-08-29T01:28:58.666Z,3.10
2022-08-29T01:31:56.786Z,3.40
2022-08-29T01:34:38.764Z,3.40
2022-08-29T01:37:26.638Z,3.20
2022-08-29T01:40:08.718Z,3.25
2022-08-29T01:42:57.566Z,3.78
2022-08-29T01:45:39.298Z,3.30
2022-08-29T01:48:27.579Z,3.50
2022-08-29T01:51:08.671Z,3.50
2022-08-29T01:53:56.686Z,3.30
2022-08-29T01:56:40.163Z,3.00
2022-08-29T01:59:33.118Z,3.08
2022-08-29T02:02:21.785Z,3.40
2022-08-29T02:05:09.314Z,3.30
2022-08-29T02:07:51.830Z,3.60
2022-08-29T02:10:39.834Z,3.35
2022-08-29T02:13:20.675Z,3.13
2022-08-29T02:16:10.671Z,3.33
2022-08-29T02:18:51.727Z,3.00
2022-08-29T02:21:39.562Z,3.47
2022-08-29T02:24:27.857Z,3.50
2022-08-29T02:27:15.663Z,3.55
2022-08-29T02:29:57.742Z,3.10
2022-08-29T02:32:46.179Z,3.15
2022-08-29T02:35:26.696Z,3.20
2022-08-29T02:38:17.594Z,3.15
2022-08-29T02:41:00.088Z,3.38
2022-08-29T02:43:50.090Z,3.42
2022-08-29T02:46:30.781Z,3.20
2022-08-29T02:49:23.005Z,3.40
2022-08-29T02:52:06.733Z,3.10
2022-08-29T02:54:54.404Z,2.83
2022-08-29T02:58:00.792Z,3.03
2022-08-29T03:00:52.011Z,3.10
2022-08-29T03:03:33.086Z,3.05
2022-08-29T03:06:19.624Z,2.95
2022-08-29T03:09:00.702Z,3.15
2022-08-29T03:11:47.925Z,2.85
2022-08-29T03:14:31.373Z,3.20
2022-08-29T03:17:21.105Z,3.00
2022-08-29T03:20:01.703Z,3.55
2022-08-29T03:22:52.339Z,3.05
2022-08-29T03:25:46.586Z,3.20
2022-08-29T03:28:35.055Z,2.92
2022-08-29T03:31:15.761Z,3.63
2022-08-29T03:34:04.120Z,3.33
2022-08-29T03:36:45.138Z,3.30
2022-08-29T03:39:35.439Z,3.45
2022-08-29T03:42:16.731Z,3.15
2022-08-29T03:45:05.629Z,3.10
2022-08-29T03:47:49.404Z,3.05
2022-08-29T03:50:37.667Z,2.97
2022-08-29T03:53:18.871Z,3.53
2022-08-29T03:56:11.771Z,3.00
2022-08-29T03:59:00.805Z,2.60
2022-08-29T04:01:47.795Z,2.90
2022-08-29T04:04:47.534Z,2.78
2022-08-29T04:07:35.755Z,2.65
2022-08-29T04:10:19.191Z,3.25
2022-08-29T04:13:07.962Z,2.90
2022-08-29T04:15:50.259Z,3.20
2022-08-29T04:18:40.023Z,3.00
2022-08-29T04:21:25.859Z,3.03
2022-08-29T04:24:14.687Z,2.75
2022-08-29T04:27:08.613Z,3.25
2022-08-29T04:29:56.114Z,3.10
2022-08-29T04:32:37.783Z,3.30
2022-08-29T04:35:25.698Z,3.30
2022-08-29T04:38:06.749Z,3.10
2022-08-29T04:40:56.343Z,2.95
2022-08-29T04:43:38.568Z,3.45
2022-08-29T04:46:25.791Z,2.75
2022-08-29T04:49:06.766Z,3.28
2022-08-29T04:51:53.668Z,2.83
2022-08-29T04:54:35.389Z,2.90
2022-08-29T04:57:23.682Z,3.00
2022-08-29T05:00:06.462Z,2.42
2022-08-29T05:02:55.527Z,2.95
2022-08-29T05:05:36.938Z,3.00
2022-08-29T05:08:23.742Z,3.45
2022-08-29T05:11:06.885Z,3.47
2022-08-29T05:13:56.048Z,3.22
2022-08-29T05:16:39.047Z,2.90
2022-08-29T05:19:27.192Z,2.92
2022-08-29T05:22:15.810Z,2.67
2022-08-29T05:25:04.066Z,3.47
2022-08-29T05:27:52.002Z,3.17
2022-08-29T05:30:35.164Z,2.88
2022-08-29T05:33:23.768Z,2.75
2022-08-29T05:36:06.265Z,2.90
2022-08-29T05:38:55.628Z,3.60
2022-08-29T05:41:38.582Z,2.92
2022-08-29T05:44:27.532Z,2.75
2022-08-29T05:47:19.302Z,2.97
2022-08-29T05:50:13.730Z,2.95
2022-08-29T05:52:59.592Z,3.25
2022-08-29T05:55:48.889Z,2.85
2022-08-29T05:58:30.634Z,2.40
2022-08-29T06:01:37.615Z,3.80
2022-08-29T06:04:20.102Z,2.95
2022-08-29T06:07:07.860Z,2.60
2022-08-29T06:09:49.987Z,2.75
2022-08-29T06:12:40.982Z,3.17
2022-08-29T06:15:22.167Z,2.65
2022-08-29T06:18:08.846Z,2.40
2022-08-29T06:20:50.858Z,2.65
2022-08-29T06:23:41.758Z,2.95
2022-08-29T06:26:38.584Z,3.00
2022-08-29T06:29:29.575Z,2.67
2022-08-29T06:32:11.002Z,2.80
2022-08-29T06:34:59.607Z,2.97
2022-08-29T06:37:41.835Z,2.95
2022-08-29T06:40:28.984Z,2.90
2022-08-29T06:43:10.471Z,2.53
2022-08-29T06:45:58.324Z,2.65
2022-08-29T06:48:41.644Z,2.60
2022-08-29T06:51:32.975Z,2.38
2022-08-29T06:54:15.869Z,2.60
2022-08-29T06:57:07.012Z,2.90
2022-08-29T06:59:48.041Z,3.03
2022-08-29T07:02:36.303Z,2.47
2022-08-29T07:05:17.356Z,2.38
2022-08-29T07:08:04.494Z,2.65
2022-08-29T07:10:51.944Z,2.80
2022-08-29T07:13:40.283Z,2.50
2022-08-29T07:16:24.420Z,2.75
2022-08-29T07:19:16.617Z,2.70
2022-08-29T07:21:59.970Z,2.40
2022-08-29T07:24:49.099Z,2.47
2022-08-29T07:27:39.477Z,2.45
2022-08-29T07:30:23.015Z,2.33
2022-08-29T07:33:10.914Z,2.42
2022-08-29T07:35:54.412Z,2.50
2022-08-29T07:38:40.876Z,2.45
2022-08-29T07:41:29.202Z,2.45
2022-08-29T07:44:17.815Z,2.50
2022-08-29T07:47:07.080Z,2.47
2022-08-29T07:49:55.941Z,2.33
2022-08-29T07:52:37.331Z,3.00
2022-08-29T07:55:29.682Z,2.58
2022-08-29T07:58:10.927Z,2.30
2022-08-29T08:01:01.871Z,2.47
2022-08-29T08:03:43.409Z,2.42
2022-08-29T08:06:32.516Z,2.25
2022-08-29T08:09:16.882Z,2.42
2022-08-29T08:12:08.132Z,1.92
2022-08-29T08:14:48.916Z,2.35
2022-08-29T08:17:43.441Z,2.33
2022-08-29T08:20:24.937Z,2.40
2022-08-29T08:23:14.910Z,2.50
2022-08-29T08:26:08.793Z,2.20
2022-08-29T08:28:58.564Z,2.10
2022-08-29T08:31:40.166Z,2.35
2022-08-29T08:34:26.810Z,1.80
2022-08-29T08:37:19.535Z,2.42
2022-08-29T08:40:22.837Z,2.42
2022-08-29T08:43:07.962Z,2.15
2022-08-29T08:45:56.847Z,3.30
2022-08-29T08:49:09.587Z,2.22
2022-08-29T08:52:04.806Z,2.60
2022-08-29T08:55:01.821Z,2.30
2022-08-29T08:57:47.793Z,2.25
2022-08-29T09:00:46.243Z,2.25
2022-08-29T09:03:30.625Z,2.47
2022-08-29T09:06:54.889Z,2.58
2022-08-29T09:10:11.896Z,2.58
2022-08-29T09:13:08.849Z,2.55
2022-08-29T09:15:55.239Z,2.75
2022-08-29T09:18:52.747Z,2.25
2022-08-29T09:21:41.746Z,2.22
2022-08-29T09:24:31.378Z,2.38
2022-08-29T09:27:30.007Z,2.47
2022-08-29T09:30:19.034Z,2.63
2022-08-29T09:33:15.963Z,2.25
2022-08-29T09:36:02.941Z,2.45
2022-08-29T09:38:51.202Z,2.55
2022-08-29T09:41:36.057Z,2.65
2022-08-29T09:44:33.957Z,2.58
2022-08-29T09:47:29.983Z,2.78
2022-08-29T09:50:48.344Z,2.22
2022-08-29T09:53:31.962Z,3.00
2022-08-29T09:56:27.595Z,2.60
2022-08-29T09:59:20.317Z,3.10
2022-08-29T10:02:30.030Z,2.78
2022-08-29T10:05:14.971Z,2.78
2022-08-29T10:08:02.716Z,2.88
2022-08-29T10:10:44.252Z,2.65
2022-08-29T10:14:24.232Z,2.70
2022-08-29T10:17:36.532Z,2.65
2022-08-29T10:20:25.261Z,2.47
2022-08-29T10:23:20.533Z,2.58
2022-08-29T10:26:23.925Z,3.00
2022-08-29T10:29:31.728Z,2.70
2022-08-29T10:32:56.339Z,3.22
2022-08-29T10:36:06.638Z,2.65
2022-08-29T10:39:03.296Z,2.60
2022-08-29T10:42:15.452Z,2.80
2022-08-29T10:45:14.623Z,2.88
2022-08-29T10:48:27.056Z,2.92
2022-08-29T10:51:21.886Z,2.88
2022-08-29T10:54:23.998Z,3.00
2022-08-29T10:57:06.894Z,3.03
2022-08-29T11:00:16.027Z,3.00
2022-08-29T11:03:27.420Z,2.92
2022-08-29T11:06:25.117Z,3.08
2022-08-29T11:09:13.952Z,2.78
2022-08-29T11:12:17.922Z,3.00
2022-08-29T11:15:10.014Z,3.10
2022-08-29T11:18:15.471Z,3.55
2022-08-29T11:21:17.765Z,2.83
2022-08-29T11:24:06.213Z,3.10
2022-08-29T11:27:09.409Z,3.38
2022-08-29T11:30:05.082Z,3.22
2022-08-29T11:33:11.994Z,3.30
2022-08-29T11:36:26.022Z,3.20
2022-08-29T11:39:17.660Z,3.28
2022-08-29T11:42:03.137Z,3.88
2022-08-29T11:44:57.902Z,3.20
2022-08-29T11:47:56.963Z,3.50
2022-08-29T11:50:46.718Z,3.70
2022-08-29T11:53:37.770Z,3.03
2022-08-29T11:56:35.675Z,3.38
2022-08-29T11:59:17.033Z,3.70
2022-08-29T12:02:08.768Z,3.50
2022-08-29T12:05:00.206Z,4.38
2022-08-29T12:08:26.205Z,3.67
2022-08-29T12:11:06.068Z,3.33
2022-08-29T12:14:04.575Z,3.30
2022-08-29T12:16:58.483Z,3.70
2022-08-29T12:19:52.008Z,3.67
2022-08-29T12:22:53.784Z,3.72
2022-08-29T12:26:21.009Z,3.60
2022-08-29T12:29:10.523Z,3.88
2022-08-29T12:32:44.076Z,3.70
2022-08-29T12:36:02.125Z,3.47
2022-08-29T12:39:13.396Z,4.22
2022-08-29T12:42:21.026Z,3.75
2022-08-29T12:45:06.026Z,3.50
2022-08-29T12:47:57.854Z,4.05
2022-08-29T12:50:58.464Z,3.53
2022-08-29T12:53:46.060Z,3.75
2022-08-29T12:56:29.944Z,3.90
2022-08-29T12:59:28.913Z,4.00
2022-08-29T13:02:10.319Z,3.83
2022-08-29T13:04:59.090Z,3.50
2022-08-29T13:07:40.431Z,3.72
2022-08-29T13:10:32.466Z,3.72
2022-08-29T13:13:26.221Z,3.90
2022-08-29T13:16:16.099Z,3.83
2022-08-29T13:19:12.345Z,3.83
2022-08-29T13:22:13.491Z,3.55
2022-08-29T13:24:56.175Z,3.75
2022-08-29T13:28:01.911Z,3.60
2022-08-29T13:30:50.435Z,3.70
2022-08-29T13:33:36.000Z,3.78
2022-08-29T13:36:56.049Z,3.30
2022-08-29T13:39:43.749Z,3.58
2022-08-29T13:42:37.844Z,3.95
2022-08-29T13:45:28.562Z,3.45
2022-08-29T13:48:30.061Z,3.42
2022-08-29T13:51:11.095Z,3.50
2022-08-29T13:54:00.166Z,3.53
2022-08-29T13:56:41.555Z,3.40
2022-08-29T13:59:34.290Z,3.45
2022-08-29T14:02:17.152Z,3.30
2022-08-29T14:05:06.933Z,3.28
2022-08-29T14:07:52.296Z,3.22
2022-08-29T14:10:40.038Z,3.63
2022-08-29T14:13:21.090Z,3.72
2022-08-29T14:16:11.127Z,3.83
2022-08-29T14:18:53.812Z,3.70
2022-08-29T14:21:43.071Z,3.42
2022-08-29T14:24:27.287Z,3.30
2022-08-29T14:27:24.484Z,3.45
2022-08-29T14:30:16.051Z,3.70
2022-08-29T14:32:58.064Z,3.42
2022-08-29T14:35:46.123Z,3.25
2022-08-29T14:38:29.620Z,3.85
2022-08-29T14:41:16.524Z,3.67
2022-08-29T14:43:57.025Z,3.38
2022-08-29T14:46:45.285Z,3.22
2022-08-29T14:49:26.395Z,3.20
2022-08-29T14:52:15.385Z,3.55
2022-08-29T14:54:56.491Z,3.47
2022-08-29T14:57:43.148Z,3.30
2022-08-29T15:00:31.279Z,3.10
2022-08-29T15:03:20.218Z,3.58
2022-08-29T15:06:01.476Z,3.33
2022-08-29T15:08:51.161Z,3.20
2022-08-29T15:11:34.078Z,3.20
2022-08-29T15:14:22.479Z,3.22
2022-08-29T15:17:04.082Z,2.72
2022-08-29T15:20:34.238Z,2.97
2022-08-29T15:22:52.527Z,3.25
2022-08-29T15:25:43.759Z,3.15
2022-08-29T15:28:38.806Z,3.20
2022-08-29T15:31:20.243Z,3.03
2022-08-29T15:34:10.131Z,3.42
2022-08-29T15:36:54.205Z,3.30
2022-08-29T15:39:42.199Z,3.47
2022-08-29T15:42:28.998Z,3.10
2022-08-29T15:45:18.166Z,3.35
2022-08-29T15:48:11.731Z,3.65
2022-08-29T15:51:02.853Z,3.40
2022-08-29T15:53:44.191Z,3.25
2022-08-29T15:56:31.039Z,3.63
2022-08-29T15:59:14.239Z,3.63
2022-08-29T16:02:03.123Z,3.40
2022-08-29T16:04:47.751Z,3.10
2022-08-29T16:07:35.534Z,4.03
2022-08-29T16:10:16.326Z,3.35
2022-08-29T16:13:05.078Z,3.28
2022-08-29T16:15:46.289Z,3.60
2022-08-29T16:18:33.105Z,3.33
2022-08-29T16:21:14.586Z,3.50
2022-08-29T16:24:02.047Z,3.70
2022-08-29T16:26:57.067Z,4.25
2022-08-29T16:29:45.088Z,3.75
2022-08-29T16:32:26.398Z,3.40
2022-08-29T16:35:16.465Z,3.20
2022-08-29T16:38:02.287Z,3.20
2022-08-29T16:40:53.091Z,3.22
2022-08-29T16:43:34.216Z,3.53
2022-08-29T16:46:24.991Z,3.45
2022-08-29T16:49:06.329Z,3.50
2022-08-29T16:51:54.222Z,3.35
2022-08-29T16:54:35.307Z,3.28
2022-08-29T16:57:24.131Z,3.80
2022-08-29T17:00:06.278Z,3.20
2022-08-29T17:02:56.342Z,3.40
2022-08-29T17:05:37.696Z,3.42
2022-08-29T17:08:25.838Z,3.58
2022-08-29T17:11:07.169Z,3.30
2022-08-29T17:13:55.898Z,3.13
2022-08-29T17:16:37.286Z,3.42
2022-08-29T17:19:29.381Z,3.90
2022-08-29T17:22:15.912Z,3.13
2022-08-29T17:25:03.193Z,3.28
2022-08-29T17:28:16.783Z,3.60
2022-08-29T17:30:55.182Z,3.63
2022-08-29T17:33:46.476Z,3.90
2022-08-29T17:36:28.319Z,3.50
2022-08-29T17:39:17.541Z,3.22
2022-08-29T17:42:02.497Z,3.55
2022-08-29T17:44:50.278Z,3.60
2022-08-29T17:47:31.885Z,4.20
2022-08-29T17:50:22.715Z,3.47
2022-08-29T17:53:04.155Z,3.38
2022-08-29T17:55:52.444Z,3.55
2022-08-29T17:58:34.153Z,3.65
2022-08-29T18:01:24.643Z,3.47
2022-08-29T18:04:05.238Z,3.28
2022-08-29T18:06:56.300Z,3.33
2022-08-29T18:09:38.150Z,3.20
2022-08-29T18:12:26.404Z,3.45
2022-08-29T18:15:11.368Z,3.42
2022-08-29T18:17:59.255Z,3.38
2022-08-29T18:20:41.977Z,3.30
2022-08-29T18:23:31.878Z,3.42
2022-08-29T18:26:13.133Z,3.50
2022-08-29T18:29:02.261Z,3.28
2022-08-29T18:31:43.138Z,3.25
2022-08-29T18:34:30.677Z,2.53
2022-08-29T18:37:11.174Z,3.20
2022-08-29T18:40:00.672Z,3.20
2022-08-29T18:42:42.167Z,2.83
2022-08-29T18:45:30.727Z,2.80
2022-08-29T18:48:12.612Z,2.83
2022-08-29T18:51:00.316Z,2.90
2022-08-29T18:53:41.537Z,2.67
2022-08-29T18:56:28.995Z,3.03
2022-08-29T18:59:11.930Z,2.90
2022-08-29T19:02:02.480Z,3.08
2022-08-29T19:04:43.189Z,2.97
2022-08-29T19:07:31.541Z,3.05
2022-08-29T19:10:13.853Z,2.75
2022-08-29T19:13:04.281Z,3.05
2022-08-29T19:15:46.554Z,2.70
2022-08-29T19:18:34.482Z,2.78
2022-08-29T19:21:16.175Z,2.95
2022-08-29T19:24:06.303Z,3.30
2022-08-29T19:27:01.639Z,2.70
2022-08-29T19:29:48.617Z,2.40
2022-08-29T19:32:30.551Z,3.20
2022-08-29T19:35:18.379Z,3.15
2022-08-29T19:38:00.199Z,2.63
2022-08-29T19:40:49.581Z,2.50
2022-08-29T19:43:37.963Z,2.50
2022-08-29T19:46:28.352Z,2.58
2022-08-29T19:49:12.196Z,3.58
2022-08-29T19:52:01.336Z,2.75
2022-08-29T19:54:43.522Z,2.50
2022-08-29T19:57:35.035Z,2.30
2022-08-29T20:00:19.332Z,3.05
2022-08-29T20:03:11.782Z,2.88
2022-08-29T20:05:53.703Z,2.85
2022-08-29T20:08:48.112Z,2.90
2022-08-29T20:11:33.504Z,2.47
2022-08-29T20:14:30.585Z,2.88
2022-08-29T20:17:14.777Z,2.33
2022-08-29T20:20:03.216Z,2.50
2022-08-29T20:22:45.781Z,3.00
2022-08-29T20:25:35.210Z,2.55
2022-08-29T20:28:29.639Z,2.65
2022-08-29T20:31:19.168Z,2.55
2022-08-29T20:34:04.362Z,2.45
2022-08-29T20:37:09.896Z,2.53
2022-08-29T20:39:54.789Z,2.60
2022-08-29T20:42:42.364Z,2.75
2022-08-29T20:45:24.011Z,2.78
2022-08-29T20:48:12.875Z,2.72
2022-08-29T20:50:54.593Z,2.47
2022-08-29T20:53:45.439Z,2.58
2022-08-29T20:56:27.402Z,2.33
2022-08-29T20:59:14.805Z,2.53
2022-08-29T21:01:58.341Z,2.95
2022-08-29T21:05:06.983Z,2.65
2022-08-29T21:07:50.118Z,2.45
2022-08-29T21:10:37.653Z,2.53
2022-08-29T21:13:19.031Z,2.60
2022-08-29T21:16:08.290Z,2.75
2022-08-29T21:18:50.492Z,2.80
2022-08-29T21:21:39.378Z,3.08
2022-08-29T21:24:20.251Z,2.80
2022-08-29T21:27:16.256Z,2.72
2022-08-29T21:30:04.357Z,3.17
2022-08-29T21:32:48.343Z,2.90
2022-08-29T21:35:37.947Z,2.88
2022-08-29T21:38:19.415Z,2.80
2022-08-29T21:41:12.788Z,3.30
2022-08-29T21:43:53.967Z,3.47
2022-08-29T21:46:43.457Z,3.15
2022-08-29T21:49:27.370Z,2.92
2022-08-29T21:52:14.558Z,2.38
2022-08-29T21:54:56.037Z,3.00
2022-08-29T21:57:59.947Z,2.90
2022-08-29T22:00:42.391Z,3.00
2022-08-29T22:03:32.063Z,3.03
2022-08-29T22:06:17.453Z,2.72
2022-08-29T22:09:04.630Z,3.35
2022-08-29T22:11:51.989Z,2.90
2022-08-29T22:14:58.487Z,2.92
2022-08-29T22:17:39.811Z,3.00
2022-08-29T22:20:27.131Z,2.67
2022-08-29T22:23:08.472Z,3.00
2022-08-29T22:25:55.438Z,2.80
2022-08-29T22:28:51.289Z,2.72
2022-08-29T22:31:42.519Z,2.92
2022-08-29T22:34:28.402Z,2.70
2022-08-29T22:37:16.737Z,2.83
2022-08-29T22:39:57.486Z,3.75
2022-08-29T22:42:46.430Z,3.00
2022-08-29T22:45:27.431Z,2.75
2022-08-29T22:48:16.401Z,3.25
2022-08-29T22:50:58.782Z,2.70
2022-08-29T22:53:46.476Z,3.10
2022-08-29T22:56:27.718Z,3.05
2022-08-29T22:59:16.141Z,3.20
2022-08-29T23:01:57.738Z,3.58
2022-08-29T23:04:46.003Z,3.65
2022-08-29T23:07:26.427Z,2.83
2022-08-29T23:10:16.638Z,2.72
2022-08-29T23:13:04.975Z,2.42
2022-08-29T23:15:53.244Z,2.80
2022-08-29T23:18:34.405Z,3.60
2022-08-29T23:21:25.609Z,2.78
2022-08-29T23:24:07.276Z,3.08
2022-08-29T23:26:56.087Z,2.90
2022-08-29T23:29:51.381Z,3.30
2022-08-29T23:32:39.514Z,2.67
2022-08-29T23:35:20.602Z,2.97
2022-08-29T23:38:08.209Z,3.25
2022-08-29T23:40:50.589Z,3.10
2022-08-29T23:43:39.338Z,3.25
2022-08-29T23:46:22.419Z,2.97
2022-08-29T23:49:12.782Z,3.03
2022-08-29T23:51:53.439Z,3.08
2022-08-29T23:54:43.350Z,3.22
2022-08-29T23:57:24.596Z,2.80
